createdAt,value
2019-01-14T00:01:39.645Z,93.60
2019-01-14T00:04:09.280Z,92.80
2019-01-14T00:06:38.828Z,92.90
2019-01-14T00:09:10.087Z,92.70
2019-01-14T00:11:39.991Z,92.00
2019-01-14T00:14:10.061Z,91.90
2019-01-14T00:16:39.889Z,91.50
2019-01-14T00:19:09.993Z,91.70
2019-01-14T00:21:39.513Z,91.70
2019-01-14T00:24:09.087Z,90.60
2019-01-14T00:26:38.663Z,91.10
2019-01-14T00:29:08.765Z,91.70
2019-01-14T00:31:38.628Z,92.80
2019-01-14T00:34:08.552Z,93.60
2019-01-14T00:36:38.283Z,93.20
2019-01-14T00:39:08.538Z,93.70
2019-01-14T00:41:38.092Z,95.10
2019-01-14T00:44:07.674Z,95.20
2019-01-14T00:46:37.216Z,96.20
2019-01-14T00:49:06.771Z,95.90
2019-01-14T00:51:36.354Z,95.30
2019-01-14T00:54:06.114Z,95.70
2019-01-14T00:56:35.738Z,94.60
2019-01-14T00:59:05.426Z,95.50
2019-01-14T01:01:34.977Z,95.40
2019-01-14T01:04:04.524Z,95.40
2019-01-14T01:06:34.114Z,95.20
2019-01-14T01:09:06.143Z,94.30
2019-01-14T01:11:35.817Z,93.50
2019-01-14T01:14:05.625Z,93.90
2019-01-14T01:16:35.319Z,92.80
2019-01-14T01:19:05.319Z,92.60
2019-01-14T01:21:35.135Z,92.00
2019-01-14T01:24:04.871Z,92.20
2019-01-14T01:26:34.964Z,92.20
2019-01-14T01:29:04.513Z,92.40
2019-01-14T01:31:34.108Z,92.60
2019-01-14T01:34:03.663Z,91.90
2019-01-14T01:36:33.203Z,91.90
2019-01-14T01:39:04.382Z,92.90
2019-01-14T01:41:33.932Z,93.00
2019-01-14T01:44:03.566Z,93.40
2019-01-14T01:46:33.112Z,93.60
2019-01-14T01:49:02.924Z,94.40
2019-01-14T01:51:32.455Z,95.20
2019-01-14T01:54:05.996Z,95.70
2019-01-14T01:56:35.849Z,95.10
2019-01-14T01:59:05.953Z,95.10
2019-01-14T02:01:35.814Z,94.90
2019-01-14T02:04:05.415Z,94.40
2019-01-14T02:06:39.175Z,94.20
2019-01-14T02:09:08.768Z,94.70
2019-01-14T02:11:38.770Z,94.70
2019-01-14T02:14:08.648Z,94.20
2019-01-14T02:16:38.864Z,94.10
2019-01-14T02:19:08.707Z,93.30
2019-01-14T02:21:38.267Z,93.30
2019-01-14T02:24:08.198Z,93.00
2019-01-14T02:26:37.768Z,92.40
2019-01-14T02:29:10.384Z,92.50
2019-01-14T02:31:40.243Z,92.60
2019-01-14T02:34:09.824Z,93.00
2019-01-14T02:36:48.158Z,92.70
2019-01-14T02:39:10.650Z,92.60
2019-01-14T02:41:40.186Z,92.70
2019-01-14T02:44:10.016Z,92.50
2019-01-14T02:46:40.132Z,93.20
2019-01-14T02:49:09.964Z,94.10
2019-01-14T02:51:39.804Z,94.00
2019-01-14T02:54:09.672Z,93.90
2019-01-14T02:56:39.523Z,93.80
2019-01-14T02:59:09.360Z,93.90
2019-01-14T03:01:39.443Z,93.00
2019-01-14T03:04:09.023Z,93.00
2019-01-14T03:06:38.609Z,93.10
2019-01-14T03:09:09.307Z,92.60
2019-01-14T03:11:38.869Z,92.90
2019-01-14T03:14:08.404Z,92.60
2019-01-14T03:16:38.220Z,92.50
2019-01-14T03:19:07.829Z,92.50
2019-01-14T03:21:37.930Z,92.70
2019-01-14T03:24:07.472Z,92.50
2019-01-14T03:26:37.296Z,92.80
2019-01-14T03:29:07.434Z,92.50
2019-01-14T03:31:37.044Z,92.50
2019-01-14T03:34:06.894Z,91.10
2019-01-14T03:36:37.028Z,90.80
2019-01-14T03:39:07.971Z,90.10
2019-01-14T03:41:37.533Z,88.50
2019-01-14T03:44:07.119Z,86.70
2019-01-14T03:46:36.958Z,86.10
2019-01-14T03:49:06.766Z,85.70
2019-01-14T03:51:36.386Z,85.50
2019-01-14T03:54:05.961Z,84.80
2019-01-14T03:56:35.513Z,83.50
2019-01-14T03:59:05.427Z,82.70
2019-01-14T04:01:35.073Z,83.00
2019-01-14T04:04:04.875Z,82.50
2019-01-14T04:06:34.801Z,78.50
2019-01-14T04:09:06.211Z,79.30
2019-01-14T04:11:35.808Z,78.30
2019-01-14T04:14:05.718Z,76.50
2019-01-14T04:16:35.268Z,76.30
2019-01-14T04:19:04.948Z,75.30
2019-01-14T04:21:35.073Z,74.30
2019-01-14T04:24:04.660Z,73.10
2019-01-14T04:26:34.282Z,73.10
2019-01-14T04:29:04.118Z,72.80
2019-01-14T04:31:33.681Z,72.20
2019-01-14T04:34:03.533Z,70.10
2019-01-14T04:36:33.453Z,69.20
2019-01-14T04:39:04.658Z,68.10
2019-01-14T04:41:34.255Z,66.90
2019-01-14T04:44:04.140Z,66.40
2019-01-14T04:46:33.704Z,65.90
2019-01-14T04:49:03.314Z,64.60
2019-01-14T04:51:32.858Z,65.70
2019-01-14T04:54:02.711Z,64.60
2019-01-14T04:56:32.257Z,64.30
2019-01-14T04:59:01.840Z,62.90
2019-01-14T05:01:31.407Z,62.70
2019-01-14T05:04:00.984Z,63.40
2019-01-14T05:06:30.818Z,64.40
2019-01-14T05:09:00.402Z,64.10
2019-01-14T05:11:30.172Z,64.00
2019-01-14T05:14:00.053Z,64.80
2019-01-14T05:16:30.139Z,65.20
2019-01-14T05:18:59.956Z,64.50
2019-01-14T05:21:29.516Z,63.60
2019-01-14T05:23:59.093Z,63.50
2019-01-14T05:26:28.920Z,63.40
2019-01-14T05:28:58.890Z,63.20
2019-01-14T05:31:28.694Z,63.40
2019-01-14T05:33:58.296Z,63.40
2019-01-14T05:36:28.061Z,64.20
2019-01-14T05:38:57.679Z,64.50
2019-01-14T05:41:27.554Z,64.10
2019-01-14T05:43:57.115Z,63.60
2019-01-14T05:46:27.822Z,63.40
2019-01-14T05:48:57.419Z,63.50
2019-01-14T05:51:27.223Z,64.30
2019-01-14T05:53:57.137Z,64.90
2019-01-14T05:56:26.770Z,65.30
2019-01-14T05:58:57.089Z,65.70
2019-01-14T06:01:26.717Z,65.20
2019-01-14T06:03:56.598Z,64.70
2019-01-14T06:06:26.442Z,64.60
2019-01-14T06:08:56.057Z,64.10
2019-01-14T06:11:25.657Z,63.80
2019-01-14T06:13:55.748Z,65.40
2019-01-14T06:16:25.355Z,64.70
2019-01-14T06:18:54.923Z,65.20
2019-01-14T06:21:24.488Z,65.10
2019-01-14T06:23:54.659Z,64.60
2019-01-14T06:26:24.206Z,65.20
2019-01-14T06:28:54.058Z,64.20
2019-01-14T06:31:23.619Z,65.20
2019-01-14T06:33:53.623Z,64.70
2019-01-14T06:36:23.504Z,65.20
2019-01-14T06:38:53.028Z,65.30
2019-01-14T06:41:22.622Z,65.00
2019-01-14T06:43:52.152Z,64.90
2019-01-14T06:46:21.716Z,64.20
2019-01-14T06:48:51.586Z,64.30
2019-01-14T06:51:21.438Z,64.80
2019-01-14T06:53:51.023Z,65.40
2019-01-14T06:56:20.870Z,65.50
2019-01-14T06:58:50.448Z,67.10
2019-01-14T07:01:20.047Z,67.60
2019-01-14T07:03:49.908Z,69.40
2019-01-14T07:06:19.460Z,70.50
2019-01-14T07:08:49.354Z,70.70
2019-01-14T07:11:20.016Z,70.20
2019-01-14T07:13:50.092Z,71.00
2019-01-14T07:16:19.679Z,70.20
2019-01-14T07:18:49.478Z,69.60
2019-01-14T07:21:19.620Z,70.00
2019-01-14T07:23:49.457Z,68.80
2019-01-14T07:26:19.296Z,70.20
2019-01-14T07:28:49.127Z,69.90
2019-01-14T07:31:18.896Z,69.90
2019-01-14T07:33:48.626Z,69.50
2019-01-14T07:36:18.699Z,69.40
2019-01-14T07:38:48.311Z,69.20
2019-01-14T07:41:17.906Z,70.10
2019-01-14T07:43:47.733Z,69.90
2019-01-14T07:46:17.543Z,70.30
2019-01-14T07:48:47.661Z,70.20
2019-01-14T07:51:17.252Z,70.00
2019-01-14T07:53:47.146Z,70.00
2019-01-14T07:56:17.398Z,69.10
2019-01-14T07:58:47.501Z,70.40
2019-01-14T08:01:17.314Z,70.40
2019-01-14T08:03:47.723Z,72.20
2019-01-14T08:06:17.311Z,71.80
2019-01-14T08:08:47.175Z,72.80
2019-01-14T08:11:17.042Z,74.10
2019-01-14T08:13:46.912Z,73.40
2019-01-14T08:16:16.547Z,75.60
2019-01-14T08:18:46.417Z,74.90
2019-01-14T08:21:16.001Z,74.20
2019-01-14T08:23:45.848Z,74.50
2019-01-14T08:26:15.484Z,76.40
2019-01-14T08:28:45.005Z,76.60
2019-01-14T08:31:14.586Z,75.60
2019-01-14T08:33:44.388Z,72.80
2019-01-14T08:36:14.067Z,70.90
2019-01-14T08:38:43.613Z,70.40
2019-01-14T08:41:14.120Z,68.70
2019-01-14T08:43:44.486Z,67.40
2019-01-14T08:46:14.202Z,64.60
2019-01-14T08:48:48.754Z,64.50
2019-01-14T08:51:15.524Z,64.20
2019-01-14T08:53:45.116Z,65.10
2019-01-14T08:56:14.688Z,65.00
2019-01-14T08:58:44.779Z,64.10
2019-01-14T09:01:14.845Z,62.40
2019-01-14T09:03:44.732Z,61.70
2019-01-14T09:06:14.596Z,62.80
2019-01-14T09:08:44.664Z,64.30
2019-01-14T09:11:14.535Z,63.20
2019-01-14T09:13:44.387Z,60.00
2019-01-14T09:16:14.248Z,62.00
2019-01-14T09:18:44.086Z,60.60
2019-01-14T09:21:13.647Z,61.40
2019-01-14T09:23:43.197Z,60.70
2019-01-14T09:26:12.755Z,60.60
2019-01-14T09:28:42.355Z,60.30
2019-01-14T09:31:12.246Z,59.90
2019-01-14T09:33:42.047Z,61.40
2019-01-14T09:36:11.911Z,59.90
2019-01-14T09:38:41.792Z,58.00
2019-01-14T09:41:11.564Z,62.10
2019-01-14T09:43:41.683Z,62.90
2019-01-14T09:46:11.541Z,62.80
2019-01-14T09:48:41.091Z,62.40
2019-01-14T09:51:10.967Z,61.70
2019-01-14T09:53:40.477Z,59.00
2019-01-14T09:56:10.052Z,59.40
2019-01-14T09:58:39.657Z,59.10
2019-01-14T10:01:09.224Z,59.80
2019-01-14T10:03:38.819Z,60.00
2019-01-14T10:06:08.644Z,59.90
2019-01-14T10:08:43.054Z,58.00
2019-01-14T10:11:09.485Z,58.70
2019-01-14T10:13:39.039Z,59.00
2019-01-14T10:16:08.615Z,60.10
2019-01-14T10:18:38.510Z,55.60
2019-01-14T10:21:08.091Z,52.70
2019-01-14T10:23:38.190Z,52.00
2019-01-14T10:26:08.075Z,51.90
2019-01-14T10:28:37.746Z,52.80
2019-01-14T10:31:07.355Z,51.90
2019-01-14T10:33:37.437Z,51.70
2019-01-14T10:36:07.031Z,51.20
2019-01-14T10:38:36.638Z,50.50
2019-01-14T10:41:06.727Z,50.90
2019-01-14T10:43:36.540Z,49.30
2019-01-14T10:46:06.094Z,50.10
2019-01-14T10:48:35.734Z,51.10
2019-01-14T10:51:05.446Z,51.00
2019-01-14T10:53:35.316Z,50.30
2019-01-14T10:56:05.070Z,49.10
2019-01-14T10:58:34.687Z,50.00
2019-01-14T11:01:04.375Z,49.50
2019-01-14T11:03:34.235Z,49.50
2019-01-14T11:06:04.330Z,50.60
2019-01-14T11:08:33.964Z,50.00
2019-01-14T11:11:03.539Z,48.40
2019-01-14T11:13:33.359Z,45.60
2019-01-14T11:16:03.414Z,46.60
2019-01-14T11:18:33.003Z,45.90
2019-01-14T11:21:02.842Z,45.20
2019-01-14T11:23:32.412Z,47.70
2019-01-14T11:26:02.008Z,44.30
2019-01-14T11:28:31.647Z,45.70
2019-01-14T11:31:02.688Z,44.40
2019-01-14T11:33:32.238Z,45.50
2019-01-14T11:36:02.091Z,44.60
2019-01-14T11:38:46.396Z,44.90
2019-01-14T11:41:16.238Z,43.90
2019-01-14T11:43:45.793Z,45.70
2019-01-14T11:46:15.368Z,46.50
2019-01-14T11:48:44.958Z,45.80
2019-01-14T11:51:14.547Z,43.40
2019-01-14T11:53:44.119Z,44.60
2019-01-14T11:56:14.058Z,46.50
2019-01-14T11:58:43.908Z,49.20
2019-01-14T12:01:14.065Z,49.70
2019-01-14T12:03:44.179Z,48.60
2019-01-14T12:06:14.024Z,48.30
2019-01-14T12:08:43.826Z,48.40
2019-01-14T12:11:13.384Z,48.50
2019-01-14T12:13:42.951Z,47.90
2019-01-14T12:16:12.586Z,44.50
2019-01-14T12:18:42.160Z,44.70
2019-01-14T12:21:11.775Z,45.90
2019-01-14T12:23:41.372Z,45.70
2019-01-14T12:26:10.991Z,44.80
2019-01-14T12:28:40.836Z,41.00
2019-01-14T12:31:10.416Z,43.00
2019-01-14T12:33:40.207Z,43.50
2019-01-14T12:36:09.795Z,45.80
2019-01-14T12:38:39.353Z,48.00
2019-01-14T12:41:09.210Z,62.30
2019-01-14T12:43:38.776Z,68.80
2019-01-14T12:46:08.568Z,76.30
2019-01-14T12:48:38.416Z,79.60
2019-01-14T12:51:07.928Z,83.50
2019-01-14T12:53:37.798Z,85.10
2019-01-14T12:56:07.435Z,87.80
2019-01-14T12:58:37.003Z,85.30
2019-01-14T13:01:06.856Z,81.90
2019-01-14T13:03:37.687Z,79.40
2019-01-14T13:06:07.308Z,80.00
2019-01-14T13:08:37.416Z,76.90
2019-01-14T13:11:07.442Z,70.50
2019-01-14T13:13:37.272Z,66.30
2019-01-14T13:16:07.119Z,53.00
2019-01-14T13:18:37.219Z,54.00
2019-01-14T13:21:06.781Z,53.60
2019-01-14T13:23:36.382Z,51.50
2019-01-14T13:26:06.055Z,52.00
2019-01-14T13:28:35.769Z,47.80
2019-01-14T13:31:06.090Z,52.20
2019-01-14T13:33:35.873Z,55.10
2019-01-14T13:36:07.011Z,60.80
2019-01-14T13:38:36.568Z,62.00
2019-01-14T13:41:06.466Z,64.20
2019-01-14T13:43:36.296Z,66.00
2019-01-14T13:46:06.247Z,67.30
2019-01-14T13:48:36.131Z,66.40
2019-01-14T13:51:05.994Z,63.10
2019-01-14T13:53:35.813Z,62.40
2019-01-14T13:56:05.363Z,62.90
2019-01-14T13:58:35.451Z,61.30
2019-01-14T14:01:04.992Z,61.20
2019-01-14T14:03:34.898Z,61.60
2019-01-14T14:06:04.822Z,57.20
2019-01-14T14:08:34.667Z,58.00
2019-01-14T14:11:04.343Z,57.70
2019-01-14T14:13:33.876Z,57.50
2019-01-14T14:16:03.460Z,56.30
2019-01-14T14:18:33.103Z,51.40
2019-01-14T14:21:02.656Z,50.60
2019-01-14T14:23:33.443Z,51.70
2019-01-14T14:26:03.457Z,51.40
2019-01-14T14:28:33.047Z,49.90
2019-01-14T14:31:02.662Z,50.70
2019-01-14T14:33:32.224Z,50.20
2019-01-14T14:36:02.036Z,51.80
2019-01-14T14:38:31.655Z,55.10
2019-01-14T14:41:01.761Z,57.60
2019-01-14T14:43:31.582Z,59.20
2019-01-14T14:46:01.418Z,60.00
2019-01-14T14:48:31.485Z,59.70
2019-01-14T14:51:01.074Z,57.70
2019-01-14T14:53:30.609Z,54.80
2019-01-14T14:56:00.460Z,53.00
2019-01-14T14:58:30.292Z,54.00
2019-01-14T15:01:00.095Z,52.80
2019-01-14T15:03:30.260Z,52.10
2019-01-14T15:06:00.078Z,53.00
2019-01-14T15:08:29.650Z,52.10
2019-01-14T15:10:59.455Z,53.00
2019-01-14T15:13:29.318Z,51.00
2019-01-14T15:15:58.881Z,53.70
2019-01-14T15:18:28.787Z,51.10
2019-01-14T15:20:58.617Z,53.10
2019-01-14T15:23:28.490Z,52.70
2019-01-14T15:25:58.379Z,62.20
2019-01-14T15:28:28.433Z,66.20
2019-01-14T15:30:58.306Z,69.50
2019-01-14T15:33:27.808Z,70.30
2019-01-14T15:35:57.903Z,70.90
2019-01-14T15:38:27.487Z,70.50
2019-01-14T15:40:57.348Z,71.10
2019-01-14T15:43:27.501Z,70.30
2019-01-14T15:45:57.226Z,71.90
2019-01-14T15:48:27.098Z,72.40
2019-01-14T15:50:56.631Z,73.20
2019-01-14T15:53:26.995Z,71.80
2019-01-14T15:55:56.823Z,70.30
2019-01-14T15:58:26.710Z,70.10
2019-01-14T16:00:56.295Z,68.90
2019-01-14T16:03:25.864Z,68.40
2019-01-14T16:05:55.459Z,68.40
2019-01-14T16:08:25.283Z,66.60
2019-01-14T16:10:55.176Z,66.60
2019-01-14T16:13:24.834Z,64.10
2019-01-14T16:15:54.680Z,64.90
2019-01-14T16:18:24.789Z,66.10
2019-01-14T16:20:54.327Z,65.70
2019-01-14T16:23:24.160Z,65.30
2019-01-14T16:25:53.685Z,65.90
2019-01-14T16:28:23.269Z,65.40
2019-01-14T16:30:53.117Z,64.30
2019-01-14T16:33:22.757Z,64.00
2019-01-14T16:35:52.398Z,62.60
2019-01-14T16:38:21.966Z,62.70
2019-01-14T16:40:51.907Z,62.30
2019-01-14T16:43:21.718Z,63.70
2019-01-14T16:45:51.602Z,62.60
2019-01-14T16:48:21.175Z,62.50
2019-01-14T16:50:51.011Z,62.90
2019-01-14T16:53:20.823Z,63.80
2019-01-14T16:55:53.423Z,63.70
2019-01-14T16:58:23.030Z,62.90
2019-01-14T17:00:52.878Z,63.10
2019-01-14T17:03:22.424Z,63.00
2019-01-14T17:05:52.001Z,62.50
2019-01-14T17:08:21.830Z,63.40
2019-01-14T17:10:51.395Z,64.00
2019-01-14T17:13:20.995Z,62.40
2019-01-14T17:15:50.582Z,63.00
2019-01-14T17:18:20.123Z,62.00
2019-01-14T17:20:49.791Z,62.10
2019-01-14T17:23:19.871Z,62.70
2019-01-14T17:25:49.920Z,62.10
2019-01-14T17:28:19.538Z,62.70
2019-01-14T17:30:49.142Z,62.20
2019-01-14T17:33:19.019Z,60.20
2019-01-14T17:35:49.105Z,61.30
2019-01-14T17:38:18.703Z,61.70
2019-01-14T17:40:48.550Z,61.70
2019-01-14T17:43:18.373Z,61.90
2019-01-14T17:45:47.968Z,63.00
2019-01-14T17:48:17.603Z,66.00
2019-01-14T17:50:47.424Z,64.80
2019-01-14T17:53:17.007Z,62.50
2019-01-14T17:55:46.631Z,61.80
2019-01-14T17:58:16.276Z,61.40
2019-01-14T18:00:45.810Z,60.90
2019-01-14T18:03:15.651Z,61.20
2019-01-14T18:05:45.496Z,60.90
2019-01-14T18:08:15.308Z,61.30
2019-01-14T18:10:44.891Z,62.30
2019-01-14T18:13:14.465Z,61.70
2019-01-14T18:15:44.125Z,63.00
2019-01-14T18:18:13.735Z,62.70
2019-01-14T18:20:43.654Z,62.50
2019-01-14T18:23:13.449Z,64.00
2019-01-14T18:25:43.518Z,64.50
2019-01-14T18:28:13.388Z,64.50
2019-01-14T18:30:43.261Z,63.80
2019-01-14T18:33:12.841Z,64.90
2019-01-14T18:35:42.682Z,65.30
2019-01-14T18:38:12.735Z,64.80
2019-01-14T18:40:47.141Z,65.40
2019-01-14T18:43:14.083Z,66.20
2019-01-14T18:45:43.695Z,68.70
2019-01-14T18:48:13.249Z,69.50
2019-01-14T18:50:42.836Z,71.10
2019-01-14T18:53:12.441Z,71.80
2019-01-14T18:55:42.023Z,71.70
2019-01-14T18:58:12.595Z,71.20
2019-01-14T19:00:42.279Z,70.30
2019-01-14T19:03:11.903Z,72.10
2019-01-14T19:05:41.749Z,72.30
2019-01-14T19:08:11.264Z,73.20
2019-01-14T19:10:41.163Z,73.00
2019-01-14T19:13:11.009Z,73.10
2019-01-14T19:15:40.678Z,73.00
2019-01-14T19:18:10.235Z,72.80
2019-01-14T19:20:40.177Z,73.00
2019-01-14T19:23:10.068Z,72.70
2019-01-14T19:25:39.866Z,73.10
2019-01-14T19:28:09.520Z,73.70
2019-01-14T19:30:39.151Z,75.00
2019-01-14T19:33:08.747Z,75.70
2019-01-14T19:35:38.290Z,75.50
2019-01-14T19:38:08.157Z,75.50
2019-01-14T19:40:37.716Z,75.60
2019-01-14T19:43:07.612Z,76.40
2019-01-14T19:45:37.453Z,77.10
2019-01-14T19:48:07.017Z,77.50
2019-01-14T19:50:36.647Z,78.30
2019-01-14T19:53:06.216Z,77.10
2019-01-14T19:55:36.215Z,76.90
2019-01-14T19:58:05.919Z,76.20
2019-01-14T20:00:35.860Z,75.80
2019-01-14T20:03:05.359Z,75.90
2019-01-14T20:05:34.995Z,75.80
2019-01-14T20:08:05.166Z,76.20
2019-01-14T20:10:34.756Z,76.20
2019-01-14T20:13:04.310Z,75.40
2019-01-14T20:15:34.145Z,74.30
2019-01-14T20:18:03.729Z,73.80
2019-01-14T20:20:33.315Z,73.30
2019-01-14T20:23:02.918Z,73.20
2019-01-14T20:25:32.719Z,73.30
2019-01-14T20:28:02.543Z,72.50
2019-01-14T20:30:32.103Z,73.70
2019-01-14T20:33:02.287Z,74.10
2019-01-14T20:35:31.797Z,74.50
2019-01-14T20:38:01.494Z,73.70
2019-01-14T20:40:31.046Z,74.90
2019-01-14T20:43:00.887Z,75.30
2019-01-14T20:45:30.463Z,75.40
2019-01-14T20:48:00.060Z,74.10
2019-01-14T20:50:29.902Z,73.00
2019-01-14T20:52:59.715Z,74.50
2019-01-14T20:55:29.323Z,75.30
2019-01-14T20:57:58.951Z,74.40
2019-01-14T21:00:28.493Z,75.30
2019-01-14T21:02:58.119Z,75.30
2019-01-14T21:05:28.166Z,74.80
2019-01-14T21:07:57.859Z,73.90
2019-01-14T21:10:27.951Z,73.50
2019-01-14T21:12:58.045Z,73.00
2019-01-14T21:15:27.873Z,72.40
2019-01-14T21:17:57.641Z,72.20
2019-01-14T21:20:27.230Z,71.10
2019-01-14T21:22:57.671Z,71.40
2019-01-14T21:25:27.541Z,71.30
2019-01-14T21:27:57.453Z,72.10
2019-01-14T21:30:27.775Z,72.50
2019-01-14T21:32:57.403Z,72.30
2019-01-14T21:35:27.351Z,72.30
2019-01-14T21:37:58.926Z,71.70
2019-01-14T21:40:28.827Z,71.20
2019-01-14T21:42:58.380Z,71.80
2019-01-14T21:45:28.512Z,73.30
2019-01-14T21:47:58.413Z,74.60
2019-01-14T21:50:29.270Z,73.40
2019-01-14T21:52:58.893Z,72.60
2019-01-14T21:55:28.742Z,72.70
2019-01-14T21:57:58.360Z,71.50
2019-01-14T22:00:28.266Z,72.50
2019-01-14T22:02:58.056Z,72.10
2019-01-14T22:05:27.616Z,71.20
2019-01-14T22:07:57.715Z,71.70
2019-01-14T22:10:28.704Z,71.10
2019-01-14T22:12:58.403Z,72.40
2019-01-14T22:15:28.002Z,72.10
2019-01-14T22:17:57.839Z,73.00
2019-01-14T22:20:28.961Z,73.20
2019-01-14T22:22:58.836Z,74.00
2019-01-14T22:25:28.730Z,74.60
2019-01-14T22:27:58.264Z,75.60
2019-01-14T22:30:30.205Z,75.30
2019-01-14T22:33:00.012Z,75.80
2019-01-14T22:35:29.868Z,76.00
2019-01-14T22:37:59.481Z,75.60
2019-01-14T22:40:29.083Z,75.60
2019-01-14T22:42:58.652Z,75.00
2019-01-14T22:45:28.469Z,74.80
2019-01-14T22:47:58.094Z,75.60
2019-01-14T22:50:28.035Z,75.20
2019-01-14T22:52:57.971Z,77.00
2019-01-14T22:55:28.066Z,78.00
2019-01-14T22:57:57.659Z,78.00
2019-01-14T23:00:58.493Z,76.80
2019-01-14T23:03:28.068Z,77.90
2019-01-14T23:05:57.877Z,78.30
2019-01-14T23:08:27.739Z,77.50
2019-01-14T23:10:57.548Z,78.00
2019-01-14T23:13:27.755Z,79.40
2019-01-14T23:15:58.247Z,78.70
2019-01-14T23:18:27.819Z,79.00
2019-01-14T23:20:57.720Z,78.30
2019-01-14T23:23:27.587Z,77.90
2019-01-14T23:25:57.159Z,77.30
2019-01-14T23:28:27.278Z,77.50
2019-01-14T23:30:57.224Z,77.90
2019-01-14T23:33:26.894Z,79.00
2019-01-14T23:35:56.543Z,78.70
2019-01-14T23:38:26.047Z,78.50
2019-01-14T23:40:55.626Z,79.00
2019-01-14T23:43:25.179Z,79.30
2019-01-14T23:45:55.047Z,79.70
2019-01-14T23:48:24.595Z,79.40
2019-01-14T23:50:54.953Z,78.70
2019-01-14T23:53:24.811Z,77.80
2019-01-14T23:55:54.383Z,78.10
2019-01-14T23:58:25.299Z,77.00
